EKSP

Vojens Skrydstrup Airport

Vojens, Denmark
METAR EKSP 162220Z 17004KT 8000 BKN030 M02/M04 Q1014
Observed Flight Rules
Dec-16 @ 22:20 UTC (31 minutes ago) Marginal Visual Flight Rules
Wind Visibility Clouds
170° at 4 knots 7,998 meters
  • Broken at 3,000' AGL
Temperatures Readings
Current -2°C / 28°F
Dewpoint -4°C / 25°F
Humidity 86%
Altimeter 29.94" Hg
Pressure 1014 hPa
Elevation 40
METAR EKSP 162220Z 17004KT 8000 BKN030 M02/M04 Q1014
Observed Flight Rules
Dec-16 @ 22:20 UTC
(31 minutes ago)
MVFR
Wind Visibility
170° at 4 knots 7,998 meters
Clouds
  • Broken at 3,000' AGL
Temperature Dewpoint
-2°C / 28°F -4°C / 25°F
Humidity Altimeter Pressure
86% 29.94" Hg 1014 hPa